LIME/BGY METAR and TAF weather

Enter ICAO airport designator
Station Type Date Time Source
LIME METAR 2019/05/27 09:20 UTC NOAA

LIME 270920Z 14009KT 4000 RA BR SCT003 BKN025 14/14 Q1011 NOSIG


Station Type Date Time Source
LIME Decoded METAR 2019/05/27 09:20 UTC NOAA

Bergamo / Orio Al Serio, Italy (LIME) 45-40N 009-42E 237M
May 27, 2019 - 05:20 AM EDT / 2019.05.27 0920 UTC
Wind: from the SE (140 degrees) at 10 MPH (9 KT):0
Visibility: 2 mile(s):0
Sky conditions: mostly cloudy
Weather: rain; mist
Temperature: 57 F (14 C)
Dew Point: 57 F (14 C)
Relative Humidity: 100%
Pressure (altimeter): 29.85 in. Hg (1011 hPa)
ob: LIME 270920Z 14009KT 4000 RA BR SCT003 BKN025 14/14 Q1011 NOSIG
cycle: 9

Station Type Date Time Source
LIME TAF 2019/05/27 06:21 UTC NOAA

TAF LIME 270500Z 2706/2806 VRB05KT 7000 SCT025 BKN050
TEMPO 2708/2806 RA

Example: see airport list